Time;durP1;ratioP1;P1;durP2;ratioP2;P2;SDS_P1;SDS_P2;PMS_P1;PMS_P2;Temp;Humidity;BMP_temperature;BMP_pressure;BME280_temperature;BME280_humidity;BME280_pressure;Samples;Min_cycle;Max_cycle;Signal;HPM_P1;HPM_P2
2020/12/25 00:00:13;;;;;;;11.13;3.47;;;7.90;99.90;;;;;;4976510;28;20166;-70
2020/12/25 00:02:38;;;;;;;7.50;3.27;;;7.90;99.90;;;;;;4976451;28;20297;-70
2020/12/25 00:05:04;;;;;;;6.07;3.43;;;7.90;99.90;;;;;;4976353;28;20542;-70
2020/12/25 00:07:29;;;;;;;6.87;3.80;;;7.90;99.90;;;;;;4976118;28;20684;-69
2020/12/25 00:09:55;;;;;;;4.67;3.63;;;7.90;99.90;;;;;;4976311;28;20178;-69
2020/12/25 00:12:20;;;;;;;5.83;4.00;;;7.90;99.90;;;;;;4976155;28;20181;-69
2020/12/25 00:14:46;;;;;;;3.77;3.40;;;7.80;99.90;;;;;;4976034;28;20321;-70
2020/12/25 00:20:33;;;;;;;6.50;3.97;;;7.80;99.90;;;;;;4975855;28;20177;-70
2020/12/25 00:22:59;;;;;;;6.33;3.97;;;7.80;99.90;;;;;;4975944;28;20472;-70
2020/12/25 00:25:24;;;;;;;10.10;4.30;;;7.80;99.90;;;;;;4975980;28;20166;-69
2020/12/25 00:27:50;;;;;;;7.10;4.60;;;7.80;99.90;;;;;;4975952;28;20644;-69
2020/12/25 00:30:15;;;;;;;6.77;4.10;;;7.80;99.90;;;;;;4975689;28;20180;-70
2020/12/25 00:32:41;;;;;;;5.43;4.20;;;7.90;99.90;;;;;;4975861;28;20269;-69
2020/12/25 00:35:06;;;;;;;7.80;4.10;;;7.80;99.90;;;;;;4975867;28;20177;-69
2020/12/25 00:37:32;;;;;;;5.40;3.83;;;7.70;99.90;;;;;;4974346;28;20206;-70
2020/12/25 00:39:57;;;;;;;7.00;4.80;;;7.70;99.90;;;;;;4975312;28;20430;-69
2020/12/25 00:42:23;;;;;;;5.73;4.53;;;7.80;99.90;;;;;;4975655;28;20557;-69
2020/12/25 00:44:48;;;;;;;6.90;4.70;;;7.80;99.90;;;;;;4975393;28;20185;-69
2020/12/25 00:47:14;;;;;;;5.03;3.80;;;7.80;99.90;;;;;;4975592;28;20203;-72
2020/12/25 00:49:39;;;;;;;6.07;4.53;;;7.80;99.90;;;;;;4975665;28;20235;-71
2020/12/25 00:52:05;;;;;;;8.30;4.37;;;7.90;99.90;;;;;;4975506;28;20182;-71
2020/12/25 00:57:52;;;;;;;12.03;4.50;;;7.80;99.90;;;;;;4975143;28;20564;-70
2020/12/25 01:00:17;;;;;;;7.43;4.80;;;7.80;99.90;;;;;;4975402;28;20421;-70
2020/12/25 01:02:43;;;;;;;5.40;4.33;;;7.80;99.90;;;;;;4975036;28;20744;-70
2020/12/25 01:05:08;;;;;;;7.53;4.13;;;7.80;99.90;;;;;;4975207;28;20182;-70
2020/12/25 01:07:34;;;;;;;4.80;4.23;;;7.70;99.90;;;;;;4975034;28;20716;-69
2020/12/25 01:09:59;;;;;;;8.80;4.43;;;7.70;99.90;;;;;;4975284;28;20261;-69
2020/12/25 01:12:25;;;;;;;7.17;4.70;;;7.70;99.90;;;;;;4974880;28;20718;-69
2020/12/25 01:14:50;;;;;;;4.50;3.37;;;7.70;99.90;;;;;;4975189;28;20178;-70
2020/12/25 01:17:16;;;;;;;5.33;4.23;;;7.70;99.90;;;;;;4974858;28;20556;-70
2020/12/25 01:19:41;;;;;;;8.03;4.00;;;7.70;99.90;;;;;;4974704;28;20185;-70
2020/12/25 01:22:07;;;;;;;5.63;4.30;;;7.70;99.90;;;;;;4975490;28;20201;-69
2020/12/25 01:24:32;;;;;;;6.87;4.57;;;7.70;99.90;;;;;;4974464;28;20186;-70
2020/12/25 01:26:58;;;;;;;4.53;3.70;;;7.60;99.90;;;;;;4974798;28;20201;-69
2020/12/25 01:29:23;;;;;;;8.07;4.77;;;7.60;99.90;;;;;;4975012;28;20268;-69
2020/12/25 01:31:49;;;;;;;6.20;3.90;;;7.60;99.90;;;;;;4974950;28;20177;-70
2020/12/25 01:34:14;;;;;;;7.40;3.83;;;7.60;99.90;;;;;;4974949;28;20266;-68
2020/12/25 01:36:40;;;;;;;5.23;3.87;;;7.60;99.90;;;;;;4974872;28;20180;-68
2020/12/25 01:39:05;;;;;;;8.67;3.83;;;7.60;99.90;;;;;;4975186;28;20205;-68
2020/12/25 01:41:32;;;;;;;7.70;4.07;;;7.60;99.90;;;;;;4974902;28;20569;-68
2020/12/25 01:43:57;;;;;;;8.83;3.47;;;7.60;99.90;;;;;;4974788;28;20216;-69
2020/12/25 01:46:23;;;;;;;6.00;3.80;;;7.50;99.90;;;;;;4974562;28;20502;-69
2020/12/25 01:48:49;;;;;;;6.73;4.10;;;7.50;99.90;;;;;;4974770;28;20185;-69
2020/12/25 01:51:17;;;;;;;3.60;3.03;;;7.50;99.90;;;;;;4974777;28;20260;-69
2020/12/25 01:53:43;;;;;;;7.00;3.40;;;7.50;99.90;;;;;;4974735;28;20177;-68
2020/12/25 01:56:10;;;;;;;7.70;4.03;;;7.50;99.90;;;;;;4974723;28;20810;-69
2020/12/25 01:58:36;;;;;;;7.17;4.03;;;7.50;99.90;;;;;;4974730;28;20425;-69
2020/12/25 02:01:02;;;;;;;6.50;3.67;;;7.50;99.90;;;;;;4974416;28;20536;-69
2020/12/25 02:03:28;;;;;;;4.57;3.70;;;7.50;99.90;;;;;;4974586;28;20468;-69
2020/12/25 02:05:54;;;;;;;10.50;3.90;;;7.50;99.90;;;;;;4974679;28;20421;-69
2020/12/25 02:08:19;;;;;;;8.87;3.67;;;7.50;99.90;;;;;;4974235;28;20316;-69
2020/12/25 06:30:22;;;;;;;7.03;2.70;;;5.00;99.90;;;;;;6081752;23;20402;31
2020/12/25 06:32:48;;;;;;;12.13;2.10;;;5.00;99.90;;;;;;4956619;28;20499;-67
2020/12/25 06:35:15;;;;;;;5.93;1.87;;;5.10;99.90;;;;;;4958269;29;20462;-67
2020/12/25 06:37:41;;;;;;;3.20;1.67;;;5.00;99.90;;;;;;5048244;23;20492;-68
2020/12/25 06:40:07;;;;;;;12.77;2.20;;;5.10;99.90;;;;;;4996948;28;20421;-68
2020/12/25 06:42:35;;;;;;;8.77;2.60;;;5.20;99.90;;;;;;4996935;28;20903;-69
2020/12/25 06:45:11;;;;;;;4.13;2.10;;;5.20;99.90;;;;;;4996917;28;20456;-69
2020/12/25 06:47:39;;;;;;;7.00;2.80;;;5.20;99.90;;;;;;4995658;28;20440;-69
2020/12/25 06:50:10;;;;;;;2.90;1.67;;;5.20;99.90;;;;;;4996689;28;20432;-69
2020/12/25 06:52:53;;;;;;;10.87;2.20;;;5.20;99.90;;;;;;4996733;28;20435;-68
2020/12/25 06:55:24;;;;;;;5.20;2.90;;;5.20;99.90;;;;;;4996763;28;20490;-68
2020/12/25 06:57:53;;;;;;;8.53;3.30;;;5.20;99.90;;;;;;4996557;28;20432;-68
2020/12/25 07:00:22;;;;;;;9.20;2.80;;;5.20;99.90;;;;;;4996556;28;20463;-68
2020/12/25 07:02:48;;;;;;;10.00;2.80;;;5.20;99.90;;;;;;4996508;28;20485;-70
2020/12/25 07:05:14;;;;;;;6.37;2.63;;;5.20;99.90;;;;;;4996401;28;20432;-70
2020/12/25 07:07:40;;;;;;;5.90;2.50;;;5.20;99.90;;;;;;4996587;28;20490;-67
2020/12/25 07:10:10;;;;;;;5.47;2.33;;;5.20;99.90;;;;;;4996363;28;20259;-69
2020/12/25 07:12:36;;;;;;;9.00;2.83;;;5.20;99.90;;;;;;4996411;28;20169;-66
2020/12/25 07:15:04;;;;;;;7.50;2.83;;;5.10;99.90;;;;;;4996417;28;20439;-69
2020/12/25 07:17:29;;;;;;;11.43;3.13;;;5.20;99.90;;;;;;4996405;28;20171;-68
2020/12/25 07:19:55;;;;;;;9.83;3.70;;;5.10;99.90;;;;;;4996192;28;20427;-71
2020/12/25 07:22:21;;;;;;;6.57;2.70;;;5.10;99.90;;;;;;4994579;28;20203;-66
2020/12/25 07:24:47;;;;;;;10.73;2.90;;;5.20;99.90;;;;;;4995919;28;20192;-67
2020/12/25 07:27:16;;;;;;;8.10;3.00;;;5.20;99.90;;;;;;4995984;28;20423;-66
2020/12/25 07:29:44;;;;;;;10.53;4.20;;;5.20;99.90;;;;;;4996027;28;20719;-67
2020/12/25 07:32:11;;;;;;;7.73;4.10;;;5.20;99.90;;;;;;4995727;28;20416;-67
2020/12/25 07:34:38;;;;;;;12.13;3.60;;;5.30;99.90;;;;;;4996055;28;20830;-67
2020/12/25 07:37:04;;;;;;;9.93;3.13;;;5.30;99.90;;;;;;4995654;28;20469;-67
2020/12/25 07:39:29;;;;;;;9.27;3.20;;;5.30;99.90;;;;;;4995920;28;20438;-67
2020/12/25 07:41:55;;;;;;;13.33;3.07;;;5.40;99.90;;;;;;4995912;28;20972;-68
2020/12/25 07:44:22;;;;;;;20.20;3.33;;;5.40;99.90;;;;;;4995810;28;20204;-66
2020/12/25 07:46:48;;;;;;;8.10;3.03;;;5.40;99.90;;;;;;4995845;28;20443;-69
2020/12/25 07:49:13;;;;;;;12.57;3.60;;;5.50;99.90;;;;;;4995654;28;20454;-67
2020/12/25 07:51:39;;;;;;;7.90;3.00;;;5.50;99.90;;;;;;4995680;28;20431;-68
2020/12/25 07:54:06;;;;;;;8.30;3.43;;;5.60;99.90;;;;;;4995582;28;20271;-67
2020/12/25 07:56:35;;;;;;;8.30;4.37;;;5.60;99.90;;;;;;4995626;28;20471;-71
2020/12/25 07:59:02;;;;;;;7.03;2.87;;;5.60;99.90;;;;;;4995371;28;20518;-70
2020/12/25 08:01:30;;;;;;;6.50;3.60;;;5.60;99.90;;;;;;4995511;28;20487;-72
2020/12/25 08:04:00;;;;;;;9.00;4.53;;;5.70;99.90;;;;;;4995307;28;20530;-68
2020/12/25 08:06:28;;;;;;;5.93;3.23;;;5.70;99.90;;;;;;4995310;28;20428;-70
2020/12/25 08:09:08;;;;;;;14.40;3.37;;;5.70;99.90;;;;;;4995279;28;20772;-67
2020/12/25 08:11:35;;;;;;;14.03;4.60;;;5.80;99.90;;;;;;4995366;28;20452;-68
2020/12/25 08:14:06;;;;;;;6.80;4.23;;;5.80;99.90;;;;;;4995200;28;20566;-68
2020/12/25 08:16:35;;;;;;;12.50;4.80;;;5.90;99.90;;;;;;4995324;28;20864;-72
2020/12/25 08:19:02;;;;;;;6.23;3.40;;;5.90;99.90;;;;;;4995065;28;20430;-71
2020/12/25 08:21:37;;;;;;;12.63;4.63;;;6.00;99.90;;;;;;4994529;28;20416;-70
2020/12/25 08:24:04;;;;;;;6.13;3.47;;;6.20;99.90;;;;;;4994718;28;20478;-72
2020/12/25 08:26:31;;;;;;;5.97;4.20;;;6.20;99.90;;;;;;4994623;28;20427;-72
2020/12/25 08:28:57;;;;;;;10.63;4.77;;;6.20;99.90;;;;;;4994778;28;20427;-70
2020/12/25 08:31:23;;;;;;;6.30;3.30;;;6.20;99.90;;;;;;4994946;28;20435;-70
2020/12/25 08:33:53;;;;;;;9.60;3.47;;;6.10;99.90;;;;;;4994809;28;20176;-71
2020/12/25 08:36:19;;;;;;;16.90;3.73;;;6.10;99.90;;;;;;4994527;28;20179;-71
2020/12/25 08:38:44;;;;;;;11.40;4.83;;;6.10;99.90;;;;;;4994658;28;20443;-71
2020/12/25 08:41:10;;;;;;;10.00;3.70;;;6.10;99.90;;;;;;4994673;28;20173;-71
2020/12/25 08:43:36;;;;;;;11.10;3.87;;;6.00;99.90;;;;;;4994657;28;20242;-70
2020/12/25 08:46:03;;;;;;;11.33;4.83;;;6.00;99.90;;;;;;4994410;28;20213;-71
2020/12/25 08:48:33;;;;;;;26.80;11.10;;;5.90;99.90;;;;;;4994627;28;20428;-72
2020/12/25 08:51:09;;;;;;;14.93;7.73;;;5.80;99.90;;;;;;4994622;28;20424;-71
2020/12/25 08:53:35;;;;;;;12.70;4.13;;;5.80;99.90;;;;;;4994545;28;20428;-72
2020/12/25 08:56:21;;;;;;;7.63;3.27;;;5.90;99.90;;;;;;4994410;28;20430;-71
2020/12/25 08:59:04;;;;;;;6.17;2.80;;;5.90;99.90;;;;;;4994421;28;20485;-71
2020/12/25 09:01:31;;;;;;;6.87;3.33;;;5.80;99.90;;;;;;4994384;28;20780;-71
2020/12/25 09:03:58;;;;;;;11.47;4.53;;;5.80;99.90;;;;;;4994162;28;20479;-72
2020/12/25 09:06:24;;;;;;;11.90;3.80;;;5.80;99.90;;;;;;4994114;28;20456;-72
2020/12/25 09:08:50;;;;;;;9.40;4.03;;;5.90;99.90;;;;;;4994256;28;20466;-70
2020/12/25 09:11:18;;;;;;;8.27;4.50;;;5.90;99.90;;;;;;4994145;28;20510;-70
2020/12/25 09:13:44;;;;;;;11.53;3.60;;;6.00;99.90;;;;;;4994005;28;20591;-72
2020/12/25 09:16:10;;;;;;;8.43;3.20;;;6.00;99.90;;;;;;4993872;28;20436;-72
2020/12/25 09:18:37;;;;;;;12.60;4.30;;;6.10;99.90;;;;;;4993343;28;20958;-71
2020/12/25 09:21:04;;;;;;;5.70;3.73;;;6.10;99.90;;;;;;4993478;28;20432;-71
2020/12/25 09:23:30;;;;;;;8.33;3.20;;;6.10;99.90;;;;;;4993691;28;20566;-70
2020/12/25 09:25:56;;;;;;;7.40;3.97;;;6.10;99.90;;;;;;4993151;28;20522;-70
2020/12/25 09:28:24;;;;;;;6.10;3.37;;;6.10;99.90;;;;;;4993585;28;20455;-70
2020/12/25 09:30:53;;;;;;;6.50;3.70;;;6.20;99.90;;;;;;4993877;28;20179;-71
2020/12/25 09:33:19;;;;;;;12.47;3.60;;;6.20;99.90;;;;;;4993690;28;20498;-71
2020/12/25 09:35:45;;;;;;;4.00;2.83;;;6.30;99.90;;;;;;4993810;28;20523;-71
2020/12/25 09:38:11;;;;;;;7.23;3.60;;;6.30;99.90;;;;;;4993257;28;20609;-71
2020/12/25 09:40:37;;;;;;;7.33;3.37;;;6.40;99.90;;;;;;4993821;28;20439;-72
2020/12/25 09:43:02;;;;;;;7.00;3.00;;;6.40;99.90;;;;;;4993718;28;20667;-70
2020/12/25 09:45:28;;;;;;;9.10;3.30;;;6.50;99.90;;;;;;4991889;28;20629;-72
2020/12/25 09:47:53;;;;;;;6.70;3.03;;;6.50;99.90;;;;;;4993656;28;20181;-72
2020/12/25 09:50:19;;;;;;;5.77;3.30;;;6.50;99.90;;;;;;4993395;28;20177;-71
2020/12/25 09:52:44;;;;;;;5.10;3.20;;;6.60;99.90;;;;;;4993827;28;20586;-71
2020/12/25 09:55:10;;;;;;;3.80;3.10;;;6.60;99.90;;;;;;4993629;28;20176;-71
2020/12/25 09:57:35;;;;;;;8.93;5.17;;;6.60;99.90;;;;;;4993702;28;20188;-71
2020/12/25 10:00:11;;;;;;;5.37;2.50;;;6.60;99.90;;;;;;4991762;28;20235;-71
2020/12/25 10:02:38;;;;;;;3.67;2.73;;;6.70;99.90;;;;;;4991128;28;20258;-71
2020/12/25 10:05:05;;;;;;;11.20;3.47;;;6.70;99.90;;;;;;4991638;28;20428;-73
2020/12/25 10:07:30;;;;;;;7.63;2.57;;;6.70;99.90;;;;;;4992680;28;20503;-71
2020/12/25 10:09:56;;;;;;;3.43;2.00;;;6.70;99.90;;;;;;4993472;28;20527;-72
2020/12/25 10:12:22;;;;;;;7.00;2.93;;;6.70;99.90;;;;;;4993540;28;20236;-72
2020/12/25 10:14:47;;;;;;;9.33;2.87;;;6.80;99.90;;;;;;4993417;28;20184;-71
2020/12/25 10:17:13;;;;;;;5.40;2.80;;;6.80;99.90;;;;;;4993479;28;20205;-72
2020/12/25 10:19:38;;;;;;;8.60;2.50;;;6.90;99.90;;;;;;4993508;28;20192;-71
2020/12/25 10:22:04;;;;;;;7.83;2.73;;;6.90;99.90;;;;;;4993335;28;20639;-74
2020/12/25 10:24:29;;;;;;;5.80;2.50;;;7.00;99.90;;;;;;4993559;28;20181;-71
2020/12/25 10:26:55;;;;;;;4.10;2.57;;;7.00;99.90;;;;;;4993318;28;20181;-71
2020/12/25 10:29:20;;;;;;;5.73;2.60;;;7.00;99.90;;;;;;4993375;28;20181;-71
2020/12/25 10:31:50;;;;;;;5.10;2.90;;;7.00;99.90;;;;;;4993240;28;20199;-71
2020/12/25 10:34:16;;;;;;;7.17;3.07;;;7.10;99.90;;;;;;4992802;28;20184;-72
2020/12/25 10:36:42;;;;;;;6.67;2.63;;;7.10;99.90;;;;;;4993187;28;20611;-71
2020/12/25 10:39:10;;;;;;;7.73;3.77;;;7.10;99.90;;;;;;4993304;28;20467;-71
2020/12/25 10:41:35;;;;;;;8.97;2.20;;;7.20;99.90;;;;;;4993350;28;20434;-70
2020/12/25 10:44:01;;;;;;;6.73;3.30;;;7.10;99.90;;;;;;4993161;28;20472;-71
2020/12/25 10:46:27;;;;;;;3.80;2.70;;;7.20;99.90;;;;;;4993218;28;20177;-71
2020/12/25 10:48:52;;;;;;;7.53;2.83;;;7.20;99.90;;;;;;4993260;28;20173;-71
2020/12/25 10:51:19;;;;;;;7.43;3.07;;;7.30;99.90;;;;;;4993179;28;20428;-72
2020/12/25 10:53:45;;;;;;;6.13;2.40;;;7.20;99.90;;;;;;4993236;28;20176;-71
2020/12/25 10:56:22;;;;;;;4.13;2.60;;;7.30;99.90;;;;;;4993602;28;20424;-72
2020/12/25 10:58:48;;;;;;;6.27;3.70;;;7.30;99.90;;;;;;4995178;28;20415;-71
2020/12/25 11:01:27;;;;;;;9.60;2.67;;;7.40;99.90;;;;;;4996563;28;20432;-71
2020/12/25 11:03:54;;;;;;;5.07;2.83;;;7.40;99.90;;;;;;4996434;28;21050;-71
2020/12/25 11:06:29;;;;;;;7.67;3.30;;;7.50;99.90;;;;;;4996410;28;20428;-70
2020/12/25 11:08:55;;;;;;;7.67;2.83;;;7.60;99.90;;;;;;4996351;28;20412;-71
2020/12/25 11:11:24;;;;;;;9.03;2.37;;;7.70;99.90;;;;;;4996233;28;20961;-74
2020/12/25 11:13:50;;;;;;;4.27;2.50;;;7.70;99.90;;;;;;4996400;28;20592;-72
2020/12/25 11:16:27;;;;;;;5.53;2.30;;;7.70;99.90;;;;;;4996098;28;20440;-72
2020/12/25 11:18:54;;;;;;;5.93;2.70;;;7.80;99.90;;;;;;4993826;28;20263;-72
2020/12/25 11:21:23;;;;;;;3.23;2.10;;;7.90;99.90;;;;;;4996092;28;20416;-71
2020/12/25 11:23:50;;;;;;;7.67;3.10;;;7.90;99.90;;;;;;4996085;28;20482;-71
2020/12/25 11:26:20;;;;;;;4.73;2.30;;;8.10;99.90;;;;;;4996154;28;20451;-70
2020/12/25 11:28:46;;;;;;;6.70;2.70;;;8.30;99.90;;;;;;4995960;28;20435;-74
2020/12/25 11:31:12;;;;;;;6.90;2.33;;;8.40;99.90;;;;;;4995490;28;20810;-72
2020/12/25 11:33:38;;;;;;;7.30;2.80;;;8.50;99.90;;;;;;4995471;28;20173;-71
2020/12/25 11:36:04;;;;;;;4.17;2.20;;;8.60;99.90;;;;;;4995187;28;20435;-74
2020/12/25 11:38:29;;;;;;;9.07;2.90;;;8.60;99.90;;;;;;4995585;28;20177;-71
2020/12/25 11:40:55;;;;;;;4.30;2.70;;;8.60;99.90;;;;;;4994184;28;20671;-71
2020/12/25 11:43:20;;;;;;;5.23;2.00;;;8.50;99.90;;;;;;4995301;28;20696;-71
2020/12/25 11:45:46;;;;;;;6.63;2.67;;;8.50;99.90;;;;;;4995324;28;20177;-72
2020/12/25 11:48:11;;;;;;;9.60;3.13;;;8.50;99.90;;;;;;4994914;28;20647;-73
2020/12/25 11:50:37;;;;;;;4.30;2.37;;;8.50;99.90;;;;;;4995248;28;20231;-72
2020/12/25 11:53:02;;;;;;;4.03;2.70;;;8.40;99.90;;;;;;4995014;28;20199;-71
2020/12/25 11:55:28;;;;;;;12.90;2.40;;;8.40;99.90;;;;;;4998219;28;20181;-71
2020/12/25 11:57:53;;;;;;;10.80;2.87;;;8.40;99.90;;;;;;4999222;28;20223;-70
2020/12/25 12:00:19;;;;;;;6.27;3.43;;;8.40;99.90;;;;;;4994777;28;20206;-75
2020/12/25 12:02:44;;;;;;;3.90;2.23;;;8.40;99.90;;;;;;4995336;28;20205;-74
2020/12/25 12:05:10;;;;;;;4.80;2.07;;;8.50;99.90;;;;;;4995347;28;20196;-74
2020/12/25 12:07:35;;;;;;;5.60;2.07;;;8.50;99.90;;;;;;5002277;28;20699;-74
2020/12/25 12:10:01;;;;;;;6.60;2.00;;;8.50;99.90;;;;;;5003966;28;20192;-73
2020/12/25 12:12:26;;;;;;;7.07;1.60;;;8.50;99.90;;;;;;5001850;28;20239;-75
2020/12/25 12:14:52;;;;;;;8.07;2.20;;;8.40;99.90;;;;;;4994988;28;20180;-71
2020/12/25 12:17:17;;;;;;;4.37;1.47;;;8.40;99.90;;;;;;4995186;28;20224;-71
2020/12/25 12:19:43;;;;;;;10.57;2.30;;;8.40;99.90;;;;;;4995217;28;20199;-70
2020/12/25 12:22:08;;;;;;;2.80;1.70;;;8.30;99.90;;;;;;4994907;28;20209;-70
2020/12/25 12:24:34;;;;;;;8.67;1.83;;;8.30;99.90;;;;;;4995007;28;20177;-70
2020/12/25 12:26:59;;;;;;;7.40;1.83;;;8.30;99.90;;;;;;4994959;28;20173;-70
2020/12/25 12:29:25;;;;;;;8.07;1.90;;;8.30;99.90;;;;;;4995002;28;20177;-71
2020/12/25 12:31:50;;;;;;;12.13;2.30;;;8.20;99.90;;;;;;4994890;28;20173;-70
2020/12/25 12:34:16;;;;;;;11.07;2.50;;;8.20;99.90;;;;;;4994780;28;20641;-73
2020/12/25 12:36:45;;;;;;;8.93;2.40;;;8.20;99.90;;;;;;4994657;28;20235;-73
2020/12/25 12:39:11;;;;;;;10.67;2.13;;;8.20;99.90;;;;;;4994746;28;20592;-74
2020/12/25 12:41:37;;;;;;;7.00;2.50;;;8.20;99.90;;;;;;4994711;28;20436;-74
2020/12/25 12:44:02;;;;;;;5.63;2.10;;;8.20;99.90;;;;;;4993498;28;20220;-74
2020/12/25 12:46:27;;;;;;;4.97;1.97;;;8.20;99.90;;;;;;4994662;28;20225;-73
2020/12/25 12:48:53;;;;;;;7.63;1.80;;;8.20;99.90;;;;;;4994636;28;20263;-74
2020/12/25 12:51:18;;;;;;;5.73;2.20;;;8.30;99.90;;;;;;4994379;28;20177;-73
2020/12/25 12:53:44;;;;;;;6.40;1.87;;;8.40;99.90;;;;;;4993332;28;20629;-73
2020/12/25 12:56:11;;;;;;;7.20;1.80;;;8.50;99.90;;;;;;4994362;28;20189;-75
2020/12/25 12:58:36;;;;;;;7.93;1.90;;;8.50;99.90;;;;;;4994415;28;20551;-73
2020/12/25 13:01:02;;;;;;;4.03;2.20;;;8.50;99.90;;;;;;4994311;28;20897;-73
2020/12/25 13:03:27;;;;;;;6.30;2.70;;;8.50;99.90;;;;;;4994107;28;20221;-72
2020/12/25 13:05:53;;;;;;;8.33;2.07;;;8.60;99.90;;;;;;4994350;28;20236;-70
2020/12/25 13:08:18;;;;;;;9.43;1.90;;;8.60;99.90;;;;;;4994323;28;20181;-71
2020/12/25 13:10:44;;;;;;;6.90;2.57;;;8.60;99.90;;;;;;4994106;28;20263;-70
2020/12/25 13:13:09;;;;;;;6.97;1.90;;;8.60;99.90;;;;;;4993993;28;20223;-70
2020/12/25 13:15:35;;;;;;;7.80;1.80;;;8.50;99.90;;;;;;4994096;28;20173;-70
2020/12/25 13:18:00;;;;;;;10.83;2.60;;;8.50;99.90;;;;;;4994016;28;20181;-69
2020/12/25 13:20:26;;;;;;;8.10;1.90;;;8.50;99.90;;;;;;4993391;28;20636;-68
2020/12/25 13:22:51;;;;;;;4.73;1.80;;;8.50;99.90;;;;;;4993953;28;20201;-69
2020/12/25 13:25:17;;;;;;;5.57;1.60;;;8.40;99.90;;;;;;4994066;28;20538;-72
2020/12/25 13:27:42;;;;;;;5.87;1.70;;;8.40;99.90;;;;;;4993885;28;20262;-72
2020/12/25 13:30:08;;;;;;;9.13;1.73;;;8.30;99.90;;;;;;4993934;28;20562;-72
2020/12/25 13:32:33;;;;;;;5.90;2.50;;;8.30;99.90;;;;;;4993953;28;20234;-71
2020/12/25 13:34:59;;;;;;;9.30;2.27;;;8.30;99.90;;;;;;4993761;28;20180;-71
2020/12/25 13:37:24;;;;;;;4.33;1.77;;;8.20;99.90;;;;;;4993385;28;20588;-71
2020/12/25 13:39:50;;;;;;;5.77;1.77;;;8.20;99.90;;;;;;4992824;28;20181;-71
2020/12/25 13:42:15;;;;;;;6.70;2.20;;;8.20;99.90;;;;;;4991784;28;20179;-72
2020/12/25 13:44:41;;;;;;;3.53;1.90;;;8.10;99.90;;;;;;4991965;28;20191;-72
2020/12/25 13:47:06;;;;;;;2.93;1.73;;;8.10;99.90;;;;;;4991534;28;20169;-71
2020/12/25 13:49:32;;;;;;;6.10;2.20;;;8.10;99.90;;;;;;4994117;28;20180;-71
2020/12/25 13:51:57;;;;;;;4.40;2.20;;;8.10;99.90;;;;;;4993389;28;20173;-72
2020/12/25 13:54:23;;;;;;;8.87;2.33;;;8.10;99.90;;;;;;4991624;28;20516;-71
2020/12/25 13:56:48;;;;;;;4.43;1.57;;;8.20;99.90;;;;;;4992497;28;20177;-71
2020/12/25 13:59:14;;;;;;;8.93;2.10;;;8.10;99.90;;;;;;4992878;28;20571;-71
2020/12/25 14:01:40;;;;;;;4.23;2.33;;;8.20;99.90;;;;;;4993399;28;20544;-71
2020/12/25 14:04:05;;;;;;;7.30;2.10;;;8.20;99.90;;;;;;4992968;28;20672;-71
2020/12/25 14:06:32;;;;;;;8.57;2.03;;;8.20;99.90;;;;;;4993073;28;20296;-71
2020/12/25 14:08:57;;;;;;;7.70;1.93;;;8.20;99.90;;;;;;4993413;28;20185;-71
2020/12/25 14:11:23;;;;;;;8.70;2.57;;;8.20;99.90;;;;;;4993504;28;20413;-71
2020/12/25 14:13:49;;;;;;;5.77;2.30;;;8.20;99.90;;;;;;4993501;28;20266;-71
2020/12/25 14:16:15;;;;;;;6.23;1.90;;;8.20;99.90;;;;;;4993525;28;20595;-71
2020/12/25 14:18:42;;;;;;;7.70;2.83;;;8.20;99.90;;;;;;4993516;28;20760;-71
2020/12/25 14:21:08;;;;;;;24.20;10.37;;;8.20;99.90;;;;;;4993536;28;20428;-71
2020/12/25 14:23:34;;;;;;;6.00;1.93;;;8.20;99.90;;;;;;4993271;28;20811;-72
2020/12/25 14:25:59;;;;;;;5.87;2.53;;;8.20;99.90;;;;;;4993308;28;20217;-71
2020/12/25 14:28:25;;;;;;;2.73;1.90;;;8.20;99.90;;;;;;4992771;28;20177;-71
2020/12/25 14:30:50;;;;;;;5.80;1.83;;;8.20;99.90;;;;;;4993259;28;20178;-71
2020/12/25 14:33:16;;;;;;;12.80;4.20;;;8.20;99.90;;;;;;4996112;28;20224;-71
2020/12/25 14:35:41;;;;;;;6.10;2.60;;;8.10;99.90;;;;;;4997063;28;20268;-72
2020/12/25 14:38:08;;;;;;;4.93;2.90;;;8.10;99.90;;;;;;4996887;28;20463;-71
2020/12/25 14:40:34;;;;;;;8.60;5.53;;;8.10;99.90;;;;;;4997064;28;20175;-71
2020/12/25 14:43:01;;;;;;;7.87;4.73;;;8.10;99.90;;;;;;4996776;28;20542;-71
2020/12/25 14:45:26;;;;;;;6.63;3.90;;;8.00;99.90;;;;;;4996857;28;20432;-71
2020/12/25 14:47:52;;;;;;;7.57;3.73;;;8.00;99.90;;;;;;4996853;28;20447;-71
2020/12/25 14:50:17;;;;;;;10.60;6.17;;;8.00;99.90;;;;;;4996752;28;20192;-72
2020/12/25 14:52:43;;;;;;;6.90;3.20;;;7.90;99.90;;;;;;4996496;28;20184;-71
2020/12/25 14:55:08;;;;;;;6.30;1.93;;;7.90;99.90;;;;;;4996678;28;20173;-71
2020/12/25 14:57:34;;;;;;;22.43;11.20;;;7.80;99.90;;;;;;4996815;28;20188;-71
2020/12/25 14:59:59;;;;;;;4.53;3.10;;;7.80;99.90;;;;;;4996574;28;20260;-71
2020/12/25 15:02:25;;;;;;;7.03;4.90;;;7.80;99.90;;;;;;4996537;28;20197;-71
2020/12/25 15:04:50;;;;;;;10.70;3.17;;;7.80;99.90;;;;;;4996473;28;20235;-71
2020/12/25 15:07:16;;;;;;;5.97;3.40;;;7.70;99.90;;;;;;4996458;28;20177;-71
2020/12/25 15:09:41;;;;;;;15.20;3.33;;;7.70;99.90;;;;;;4996411;28;20191;-71
2020/12/25 15:12:07;;;;;;;9.77;3.07;;;7.60;99.90;;;;;;4996443;28;20662;-71
2020/12/25 15:14:33;;;;;;;5.63;5.13;;;7.60;99.90;;;;;;4996350;28;20180;-71
2020/12/25 15:16:58;;;;;;;7.97;2.33;;;7.50;99.90;;;;;;4996168;28;20434;-71
2020/12/25 15:19:24;;;;;;;6.77;1.90;;;7.50;99.90;;;;;;4996234;28;20184;-71
2020/12/25 15:21:49;;;;;;;7.17;2.47;;;7.50;99.90;;;;;;4996305;28;20205;-71
2020/12/25 15:24:17;;;;;;;7.50;2.43;;;7.50;99.90;;;;;;4996335;28;20223;-71
2020/12/25 15:26:43;;;;;;;6.32;2.28;;;7.40;99.90;;;;;;4995480;28;20507;-71
2020/12/25 15:29:09;;;;;;;3.03;2.40;;;7.40;99.90;;;;;;4996034;28;20424;-71
2020/12/25 15:31:34;;;;;;;4.90;1.93;;;7.40;99.90;;;;;;4996143;28;20174;-71
2020/12/25 15:34:00;;;;;;;5.27;2.10;;;7.40;99.90;;;;;;4995932;28;20432;-71
2020/12/25 15:36:26;;;;;;;9.47;1.97;;;7.40;99.90;;;;;;4996097;28;20216;-71
2020/12/25 15:38:52;;;;;;;11.07;2.90;;;7.40;99.90;;;;;;4995897;28;20482;-71
2020/12/25 15:41:17;;;;;;;4.40;2.57;;;7.40;99.90;;;;;;4995850;28;20498;-71
2020/12/25 15:43:43;;;;;;;3.23;1.83;;;7.30;99.90;;;;;;4994976;28;20672;-71
2020/12/25 15:46:09;;;;;;;9.07;2.30;;;7.30;99.90;;;;;;4995718;28;20192;-71
2020/12/25 15:48:35;;;;;;;5.20;2.07;;;7.30;99.90;;;;;;4994509;28;20440;-72
2020/12/25 15:51:00;;;;;;;8.67;2.60;;;7.20;99.90;;;;;;4995755;28;20181;-71
2020/12/25 15:53:26;;;;;;;3.97;1.63;;;7.20;99.90;;;;;;4995730;28;20236;-71
2020/12/25 15:55:51;;;;;;;6.77;2.50;;;7.20;99.90;;;;;;4995613;28;20173;-71
2020/12/25 15:58:18;;;;;;;4.33;1.80;;;7.10;99.90;;;;;;4995759;28;20192;-71
2020/12/25 16:00:45;;;;;;;7.73;2.50;;;7.10;99.90;;;;;;4995611;28;20181;-71
2020/12/25 16:03:10;;;;;;;4.47;4.00;;;7.10;99.90;;;;;;4995374;28;20555;-71
2020/12/25 16:05:36;;;;;;;9.07;3.00;;;7.00;99.90;;;;;;4995533;28;20460;-71
2020/12/25 16:08:01;;;;;;;5.70;2.40;;;7.00;99.90;;;;;;4995425;28;20173;-71
2020/12/25 16:10:27;;;;;;;5.83;2.70;;;6.90;99.90;;;;;;4995290;28;20671;-71
2020/12/25 16:12:54;;;;;;;8.20;3.23;;;6.80;99.90;;;;;;4995240;28;20180;-71
2020/12/25 16:15:19;;;;;;;9.63;3.43;;;6.80;99.90;;;;;;4995431;28;20188;-71
2020/12/25 16:17:45;;;;;;;7.23;3.73;;;6.70;99.90;;;;;;4995229;28;20447;-71
2020/12/25 16:20:11;;;;;;;7.80;3.53;;;6.70;99.90;;;;;;4995110;28;20191;-71
2020/12/25 16:22:37;;;;;;;12.70;3.80;;;6.60;99.90;;;;;;4995269;28;20211;-71
2020/12/25 16:25:04;;;;;;;5.50;3.50;;;6.60;99.90;;;;;;4995137;28;20507;-71
2020/12/25 16:27:34;;;;;;;9.37;4.00;;;6.60;99.90;;;;;;4995020;28;20945;-71
2020/12/25 16:30:00;;;;;;;10.33;4.60;;;6.60;99.90;;;;;;4994886;28;20432;-71
2020/12/25 16:32:27;;;;;;;9.27;5.17;;;6.50;99.90;;;;;;4994965;28;20515;-71
2020/12/25 16:34:53;;;;;;;6.77;2.83;;;6.50;99.90;;;;;;4994956;28;20490;-72
2020/12/25 16:37:19;;;;;;;10.50;5.20;;;7.00;99.90;;;;;;4994156;28;20476;-72
2020/12/25 16:39:44;;;;;;;9.57;4.87;;;9.10;99.90;;;;;;4998938;28;20181;-72
2020/12/25 16:42:10;;;;;;;11.57;6.13;;;9.40;99.90;;;;;;5000320;28;20256;-72
2020/12/25 16:44:35;;;;;;;8.80;5.23;;;9.00;99.90;;;;;;4992101;28;20267;-72
2020/12/25 16:47:02;;;;;;;11.07;6.47;;;8.50;99.90;;;;;;4992459;28;20177;-72
2020/12/25 16:49:28;;;;;;;12.33;6.53;;;8.10;99.90;;;;;;4994196;28;20228;-72
2020/12/25 16:51:57;;;;;;;8.17;6.10;;;7.80;99.90;;;;;;4994248;28;20428;-72
2020/12/25 16:54:24;;;;;;;11.77;7.10;;;7.60;99.90;;;;;;4994225;28;20523;-72
2020/12/25 16:56:50;;;;;;;11.30;5.60;;;7.40;99.90;;;;;;4994292;28;20819;-72
2020/12/25 16:59:18;;;;;;;9.93;6.37;;;7.30;99.90;;;;;;4994089;28;20947;-72
2020/12/25 17:01:43;;;;;;;8.23;5.20;;;7.20;99.90;;;;;;4992817;28;20439;-72
2020/12/25 17:04:09;;;;;;;8.30;4.83;;;7.10;99.90;;;;;;4992982;28;20479;-72
2020/12/25 17:06:34;;;;;;;13.50;5.43;;;7.00;99.90;;;;;;4994433;28;20204;-72
2020/12/25 17:09:01;;;;;;;10.27;5.30;;;6.90;99.90;;;;;;4994242;28;20264;-72
2020/12/25 17:11:27;;;;;;;10.77;5.57;;;6.90;99.90;;;;;;4992930;28;20177;-72
2020/12/25 17:13:53;;;;;;;13.00;6.20;;;6.90;99.90;;;;;;4994181;28;20451;-72
2020/12/25 17:16:19;;;;;;;7.03;5.57;;;6.90;99.90;;;;;;4994383;28;20204;-72